• Join FlightAware (Why Join?)
  • Login
  • US Flag 
03:16AM EDT


 

Airport Tracker/Info


-or-


 

Live Flight TrackerFlight Track Log ✈ JZA7657 ✈ 30-Apr-2013 ✈ KDCA - CYUL

Flight Track Log - Related Links

Times and Time Zones

All times are in EDT time to prevent confusion due to time zone crossing. See the JZA7657 flight status page for this flight to view local times or setup timezone preferences in your user account.

Time Position Orientation Groundspeed Altitude Reporting Facility
EDT Latitude Longitude Course Direction KTS MPH feet Rate Location/Type
09:42PM 38.8667 -77.0500 330° Northwest 167 192 1,200  Level Potomac TRACON
09:43PM 38.9000 -77.0833 322° Northwest 201 231 3,600 2,640 Climbing Potomac TRACON
09:44PM 38.9500 -77.1500 314° West 250 288 6,300 3,120 Climbing Potomac TRACON
09:45PM 39.0167 -77.2000 330° Northwest 286 329 10,300 2,820 Climbing Potomac TRACON
09:46PM 39.2580 -77.2470 337° Northwest  Level FlightAware Approximate
09:47PM 39.3614 -77.3044 337° Northwest  Level FlightAware Approximate
09:48PM 39.4653 -77.3573 330° Northwest  Level FlightAware Approximate
09:48PM 39.1828 -77.2892 337° Northwest 304 350 15,600  Level Washington Center
09:49PM 39.2825 -77.3239 345° North 338 389 17,900 1,920 Climbing Washington Center
09:50PM 39.3861 -77.3611 344° North 365 420 19,500 1,860 Climbing Washington Center
09:52PM 39.6331 -77.4403 346° North 396 456 23,900 1,860 Climbing New York Center
09:53PM 39.7497 -77.4056 13° North 402 463 25,600 1,920 Climbing New York Center
09:54PM 39.8644 -77.3678 14° North 408 470 27,800 2,220 Climbing New York Center
09:55PM 39.9750 -77.3267 16° North 418 481 30,200 2,280 Climbing New York Center
09:56PM 40.0811 -77.2933 14° North 410 472 32,500 2,040 Climbing New York Center
09:57PM 40.1833 -77.2567 15° North 390 449 34,300 1,740 Climbing New York Center
09:58PM 40.2872 -77.2228 14° North 380 437 36,000 1,380 Climbing New York Center
09:59PM 40.3894 -77.1858 15° North 380 437 37,100 960 Climbing New York Center
10:00PM 40.4933 -77.1519 14° North 385 443 38,000 600 Climbing New York Center
10:01PM 40.6017 -77.1156 14° North 385 443 38,400 480 Climbing New York Center
10:02PM 40.7122 -77.0764 15° North 390 449 39,000 300 Climbing New York Center
10:03PM 40.8244 -77.0403 14° North 404 465 39,000  Level New York Center
10:04PM 40.9392 -77.0011 14° North 404 465 39,000  Level New York Center
10:05PM 41.0494 -76.9644 14° North 404 465 39,000  Level New York Center
10:06PM 41.1661 -76.9228 15° North 410 472 39,000  Level New York Center
10:07PM 41.2806 -76.8864 13° North 415 478 39,000  Level New York Center
10:08PM 41.3953 -76.8442 15° North 420 483 39,000  Level New York Center
10:09PM 41.5122 -76.7992 16° North 425 489 39,000  Level New York Center
10:10PM 41.6267 -76.7597 14° North 425 489 39,000  Level New York Center
10:12PM 41.8514 -76.6797 15° North 425 489 39,000  Level New York Center
10:13PM 41.9658 -76.6397 15° North 425 489 39,000  Level New York Center
10:15PM 42.2514 -76.5386 15° North 439 505 39,000  Level Boston Center
10:16PM 42.3486 -76.5028 15° North 422 486 39,000  Level Boston Center
10:18PM 42.4864 -76.4366 15° North  Level FlightAware Approximate
10:18PM 42.5786 -76.4219 15° North 422 486 39,000  Level Boston Center
10:19PM 42.6906 -76.3783 16° North 422 486 39,000  Level Boston Center
10:20PM 42.8047 -76.3375 15° North 422 486 39,000 -60 Level Boston Center
10:21PM 42.9208 -76.2967 14° North 422 486 38,900 -60 Descending Boston Center
10:22PM 43.0367 -76.2556 15° North 422 486 38,900  Level Boston Center
10:23PM 43.1531 -76.2114 15° North 422 486 38,900  Level Boston Center
10:24PM 43.2725 -76.1903 North 422 486 38,900  Level Boston Center
10:25PM 43.3900 -76.1689 North 422 486 38,900  Level Boston Center
10:26PM 43.5117 -76.1450 North 428 493 38,900  Level Boston Center
10:27PM 43.6331 -76.1267 North 428 493 38,900  Level Boston Center
10:28PM 43.7486 -76.1019 North 423 487 38,900  Level Boston Center
10:29PM 43.8639 -76.0803 North 423 487 38,900  Level Boston Center
10:30PM 43.9756 -76.0439 13° North 418 481 38,900 -360 Level Boston Center
10:31PM 44.0697 -75.9628 32° Northeast 400 460 38,200 -1,740 Descending Boston Center
10:32PM 44.1597 -75.8811 33° Northeast 394 453 35,500 -2,700 Descending Boston Center
10:33PM 44.2519 -75.7997 32° Northeast 388 447 32,900 -2,640 Descending Boston Center
10:34PM 44.3439 -75.7178 33° Northeast 388 447 30,300 -2,460 Descending Boston Center
10:35PM 44.4358 -75.6325 34° Northeast 388 447 28,000 -1,200 Descending Boston Center
10:36PM 44.5297 -75.5503 32° Northeast 388 447 28,000 -60 Level Boston Center
10:37PM 44.6239 -75.4647 33° Northeast 388 447 27,900 -1,260 Descending Boston Center
10:38PM 44.7156 -75.3789 34° Northeast 393 452 25,500 -2,460 Descending Boston Center
10:39PM 44.7833 -75.2333 57° Northeast 380 437 22,500 -2,520 Descending Montreal Center
10:40PM 44.8667 -75.1167 45° Northeast 370 426 20,000 -2,280 Descending Montreal Center
10:41PM 44.9167 -75.0000 59° Northeast 370 426 18,000 -2,280 Descending Montreal Center
10:42PM 44.9833 -74.8833 51° Northeast 360 414 15,500 -2,160 Descending Montreal Center
10:43PM 45.0333 -74.7833 55° Northeast 350 403 13,700 -1,800 Descending Montreal Center
10:44PM 45.0833 -74.6667 59° Northeast 340 391 11,900 -1,800 Descending Montreal Center
10:45PM 45.1333 -74.5500 59° Northeast 330 380 10,200 -1,560 Descending Montreal Center
10:46PM 45.1833 -74.4500 55° Northeast 300 345 8,800 -1,320 Descending Montreal Center
10:47PM 45.2167 -74.3500 65° Northeast 280 322 7,600 -1,500 Descending Montreal Center
10:48PM 45.2333 -74.2333 78° East 280 322 5,900 -1,440 Descending Montreal Center
10:49PM 45.2667 -74.1333 65° Northeast 250 288 4,800 -960 Descending Montreal Center
10:50PM 45.2500 -74.0667 110° East 220 253 4,000 -480 Descending Montreal Center
10:51PM 45.2667 -73.9667 77° East 210 242 3,900 -600 Descending Montreal Center
10:53PM 45.3667 -73.8667 35° Northeast 200 230 2,300 -840 Descending Montreal Center
10:54PM 45.4000 -73.8167 46° Northeast 180 207 1,400 -900 Descending Montreal Center